Time;durP1;ratioP1;P1;durP2;ratioP2;P2;SDS_P1;SDS_P2;PMS_P1;PMS_P2;Temp;Humidity;BMP_temperature;BMP_pressure;BME280_temperature;BME280_humidity;BME280_pressure;Samples;Min_cycle;Max_cycle;Signal;HPM_P1;HPM_P2
2022/05/02 00:02:18;;;;;;;12.50;9.27;;;9.30;99.90;;;;;;5016011;28;20178;-43
2022/05/02 00:04:44;;;;;;;11.57;8.67;;;9.30;99.90;;;;;;5016216;28;20546;-44
2022/05/02 00:07:10;;;;;;;14.53;9.17;;;9.30;99.90;;;;;;5016219;28;20201;-45
2022/05/02 00:09:36;;;;;;;16.67;9.37;;;9.30;99.90;;;;;;5014003;28;20641;-43
2022/05/02 00:12:01;;;;;;;13.80;9.57;;;9.20;99.90;;;;;;5015838;28;20190;-43
2022/05/02 00:14:27;;;;;;;11.53;9.07;;;9.20;99.90;;;;;;5015943;28;20236;-44
2022/05/02 00:16:52;;;;;;;17.30;9.53;;;9.20;99.90;;;;;;5015592;28;20891;-44
2022/05/02 00:19:18;;;;;;;11.77;8.97;;;9.20;99.90;;;;;;5016061;28;20276;-43
2022/05/02 00:21:43;;;;;;;12.23;8.90;;;9.10;99.90;;;;;;5015778;28;20189;-44
2022/05/02 00:24:09;;;;;;;12.13;9.73;;;9.10;99.90;;;;;;5015618;28;20264;-44
2022/05/02 00:26:35;;;;;;;12.70;8.93;;;9.10;99.90;;;;;;5015552;28;20212;-45
2022/05/02 00:29:01;;;;;;;11.80;8.90;;;9.00;99.90;;;;;;5016758;28;20181;-44
2022/05/02 00:31:27;;;;;;;11.20;9.10;;;9.10;99.90;;;;;;5017394;28;20178;-43
2022/05/02 00:33:52;;;;;;;12.33;9.33;;;9.10;99.90;;;;;;5015603;28;20661;-44
2022/05/02 00:36:20;;;;;;;13.33;10.00;;;9.10;99.90;;;;;;5015335;28;20189;-45
2022/05/02 00:38:46;;;;;;;12.00;9.90;;;9.00;99.90;;;;;;5015356;28;20202;-43
2022/05/02 00:41:15;;;;;;;16.63;9.83;;;9.10;99.90;;;;;;5015781;28;20188;-43
2022/05/02 00:43:40;;;;;;;16.47;8.73;;;9.00;99.90;;;;;;5014060;28;20177;-42
2022/05/02 00:46:23;;;;;;;14.30;9.93;;;9.00;99.90;;;;;;5015107;28;20190;-44
2022/05/02 00:48:49;;;;;;;12.63;10.63;;;9.00;99.90;;;;;;5013939;28;20185;-43
2022/05/02 00:51:16;;;;;;;14.10;11.00;;;9.00;99.90;;;;;;5015145;28;20181;-42
2022/05/02 00:53:43;;;;;;;16.73;11.63;;;9.00;99.90;;;;;;5015352;28;20220;-43
2022/05/02 00:56:09;;;;;;;14.70;10.67;;;8.90;99.90;;;;;;5013927;28;20216;-43
2022/05/02 00:58:36;;;;;;;18.07;11.23;;;8.90;99.90;;;;;;5016123;28;20245;-43
2022/05/02 01:01:04;;;;;;;13.00;10.23;;;8.90;99.90;;;;;;5015342;28;20182;-43
2022/05/02 01:03:29;;;;;;;14.57;10.47;;;8.90;99.90;;;;;;5015215;28;20193;-43
2022/05/02 01:08:40;;;;;;;16.17;12.43;;;8.90;99.90;;;;;;5015605;28;20203;-43
2022/05/02 01:11:08;;;;;;;16.77;11.60;;;8.80;99.90;;;;;;4997547;28;20611;-45
2022/05/02 01:13:48;;;;;;;16.83;12.93;;;8.80;99.90;;;;;;5015088;28;20251;-45
2022/05/02 01:16:19;;;;;;;14.30;12.00;;;8.80;99.90;;;;;;5014973;28;20645;-44
2022/05/02 01:18:47;;;;;;;16.57;11.50;;;8.80;99.90;;;;;;5014831;28;20719;-45
2022/05/02 01:21:18;;;;;;;16.43;11.73;;;8.70;99.90;;;;;;5014077;28;20194;-45
2022/05/02 01:23:45;;;;;;;17.67;12.20;;;8.70;99.90;;;;;;5015372;28;20166;-43
2022/05/02 01:26:11;;;;;;;14.93;11.10;;;8.70;99.90;;;;;;5014509;28;20178;-45
2022/05/02 01:28:44;;;;;;;15.30;10.83;;;8.70;99.90;;;;;;5014478;28;20190;-44
2022/05/02 01:31:10;;;;;;;17.53;10.57;;;8.70;99.90;;;;;;5014378;28;20166;-43
2022/05/02 01:33:36;;;;;;;15.23;10.77;;;8.60;99.90;;;;;;5014713;28;20192;-44
2022/05/02 01:36:02;;;;;;;13.33;9.63;;;8.50;99.90;;;;;;5014473;28;20192;-45
2022/05/02 01:38:28;;;;;;;11.70;9.67;;;8.40;99.90;;;;;;5014175;28;20292;-45
2022/05/02 01:40:54;;;;;;;12.20;8.70;;;8.40;99.90;;;;;;5014473;28;20209;-44
2022/05/02 01:43:19;;;;;;;12.80;8.47;;;8.40;99.90;;;;;;5014446;28;20178;-44
2022/05/02 01:45:45;;;;;;;12.03;9.27;;;8.20;99.90;;;;;;5014819;28;20185;-44
2022/05/02 01:48:11;;;;;;;13.40;10.57;;;8.20;99.90;;;;;;5014160;28;20251;-43
2022/05/02 01:50:36;;;;;;;14.97;11.27;;;8.10;99.90;;;;;;5014749;28;20530;-43
2022/05/02 01:53:02;;;;;;;16.77;10.27;;;8.00;99.90;;;;;;5014102;28;20182;-44
2022/05/02 01:55:28;;;;;;;13.93;11.23;;;8.00;99.90;;;;;;5012989;28;20185;-44
2022/05/02 01:57:53;;;;;;;13.60;10.93;;;7.90;99.90;;;;;;5014406;28;20329;-44
2022/05/02 02:00:19;;;;;;;15.87;11.00;;;7.90;99.90;;;;;;5014902;28;20166;-43
2022/05/02 02:02:45;;;;;;;15.97;11.63;;;7.90;99.90;;;;;;5014614;28;20557;-42
2022/05/02 02:07:55;;;;;;;14.13;10.57;;;7.90;99.90;;;;;;5013861;28;20657;-43
2022/05/02 02:10:21;;;;;;;17.40;11.47;;;7.90;99.90;;;;;;5013933;28;20190;-45
2022/05/02 02:12:46;;;;;;;12.97;10.60;;;7.90;99.90;;;;;;5013925;28;20190;-44
2022/05/02 02:15:14;;;;;;;16.13;11.20;;;7.90;99.90;;;;;;5013812;28;20185;-44
2022/05/02 02:17:43;;;;;;;16.07;11.27;;;8.00;99.90;;;;;;5013630;28;20210;-45
2022/05/02 02:20:10;;;;;;;14.43;11.50;;;8.00;99.90;;;;;;5013732;28;20181;-44
2022/05/02 02:22:37;;;;;;;13.43;10.60;;;8.10;99.90;;;;;;5013533;28;20204;-46
2022/05/02 02:25:04;;;;;;;14.00;10.17;;;8.10;99.90;;;;;;5013485;28;20193;-44
2022/05/02 02:27:30;;;;;;;14.40;10.57;;;8.10;99.90;;;;;;5013317;28;20564;-43
2022/05/02 02:29:55;;;;;;;18.30;11.67;;;8.10;99.90;;;;;;5013811;28;20243;-44
2022/05/02 02:32:21;;;;;;;17.90;11.70;;;8.10;99.90;;;;;;5017528;28;20193;-44
2022/05/02 02:34:47;;;;;;;16.37;11.83;;;8.10;99.90;;;;;;5019914;28;20263;-41
2022/05/02 02:37:12;;;;;;;15.43;11.37;;;8.10;99.90;;;;;;5020010;28;20204;-45
2022/05/02 02:39:38;;;;;;;16.37;11.90;;;8.10;99.90;;;;;;5020103;28;20189;-44
2022/05/02 02:42:04;;;;;;;16.30;12.17;;;8.10;99.90;;;;;;5019887;28;20260;-44
2022/05/02 02:44:29;;;;;;;15.27;11.73;;;8.10;99.90;;;;;;5019801;28;20181;-44
2022/05/02 02:46:55;;;;;;;16.37;12.40;;;8.10;99.90;;;;;;5020033;28;20292;-44
2022/05/02 02:49:21;;;;;;;19.50;12.13;;;8.10;99.90;;;;;;5019905;28;20180;-40
2022/05/02 02:51:46;;;;;;;16.83;11.67;;;8.10;99.90;;;;;;5018526;28;20208;-41
2022/05/02 02:54:12;;;;;;;15.80;12.37;;;8.10;99.90;;;;;;5019988;28;20205;-40
2022/05/02 02:56:38;;;;;;;19.70;14.00;;;8.10;99.90;;;;;;5019910;28;20201;-41
2022/05/02 02:59:03;;;;;;;16.40;12.47;;;8.10;99.90;;;;;;5019884;28;20288;-40
2022/05/02 03:01:29;;;;;;;18.20;12.60;;;8.10;99.90;;;;;;5019777;28;20192;-41
2022/05/02 03:03:55;;;;;;;18.17;12.20;;;8.10;99.90;;;;;;5019892;28;20208;-42
2022/05/02 03:06:21;;;;;;;17.97;12.63;;;8.00;99.90;;;;;;5019689;28;20195;-41
2022/05/02 03:08:47;;;;;;;18.10;13.10;;;8.00;99.90;;;;;;5020145;28;20176;-43
2022/05/02 03:11:13;;;;;;;16.27;12.47;;;8.00;99.90;;;;;;5019834;28;20181;-41
2022/05/02 03:13:39;;;;;;;17.73;12.87;;;8.00;99.90;;;;;;5019105;28;20184;-39
2022/05/02 03:16:05;;;;;;;16.03;12.13;;;8.00;99.90;;;;;;5018556;28;20663;-40
2022/05/02 03:18:31;;;;;;;16.83;12.53;;;7.90;99.90;;;;;;5019664;28;20685;-39
2022/05/02 03:20:57;;;;;;;21.17;13.60;;;7.90;99.90;;;;;;5018709;28;20257;-46
2022/05/02 03:23:23;;;;;;;18.03;12.90;;;7.90;99.90;;;;;;5020550;28;20176;-42
2022/05/02 03:25:49;;;;;;;19.93;12.77;;;7.90;99.90;;;;;;5019685;28;20174;-41
2022/05/02 03:28:15;;;;;;;20.80;13.80;;;7.90;99.90;;;;;;5019681;28;20205;-38
2022/05/02 03:30:41;;;;;;;20.00;13.10;;;7.90;99.90;;;;;;5019936;28;20178;-40
2022/05/02 03:33:07;;;;;;;18.20;12.93;;;7.90;99.90;;;;;;5019722;28;20184;-40
2022/05/02 03:35:33;;;;;;;19.17;13.00;;;7.90;99.90;;;;;;5019856;28;20272;-38
2022/05/02 03:37:58;;;;;;;19.57;13.50;;;7.90;99.90;;;;;;5018163;28;20700;-41
2022/05/02 03:40:24;;;;;;;22.50;13.57;;;7.80;99.90;;;;;;5019472;28;20591;-40
2022/05/02 03:42:49;;;;;;;19.33;12.13;;;7.80;99.90;;;;;;5018123;28;20220;-39
2022/05/02 03:45:15;;;;;;;21.17;13.83;;;7.80;99.90;;;;;;5014913;28;20288;-40
2022/05/02 03:47:41;;;;;;;18.77;13.13;;;7.80;99.90;;;;;;5016312;28;20699;-40
2022/05/02 03:50:07;;;;;;;18.27;13.57;;;7.70;99.90;;;;;;5016376;28;20177;-41
2022/05/02 03:52:32;;;;;;;19.97;13.37;;;7.80;99.90;;;;;;5016607;28;20267;-45
2022/05/02 03:54:58;;;;;;;23.63;15.40;;;7.70;99.90;;;;;;5016292;28;20590;-44
2022/05/02 03:57:23;;;;;;;18.57;14.03;;;7.80;99.90;;;;;;5016345;28;20212;-45
2022/05/02 03:59:49;;;;;;;19.53;14.33;;;7.80;99.90;;;;;;5016727;28;20167;-44
2022/05/02 04:02:15;;;;;;;22.10;14.10;;;7.80;99.90;;;;;;5016613;28;20205;-43
2022/05/02 04:04:40;;;;;;;17.47;12.77;;;7.80;99.90;;;;;;5016126;28;20240;-42
2022/05/02 04:07:06;;;;;;;17.63;13.40;;;7.80;99.90;;;;;;5016072;28;20212;-43
2022/05/02 04:09:32;;;;;;;23.53;14.17;;;7.70;99.90;;;;;;5014624;28;20182;-42
2022/05/02 04:11:57;;;;;;;20.13;13.47;;;7.70;99.90;;;;;;5016169;28;20664;-43
2022/05/02 04:14:23;;;;;;;20.73;13.07;;;7.70;99.90;;;;;;5016111;28;20238;-43
2022/05/02 04:16:52;;;;;;;17.47;13.07;;;7.60;99.90;;;;;;5015843;28;20201;-42
2022/05/02 04:19:17;;;;;;;18.37;14.10;;;7.60;99.90;;;;;;5015995;28;20218;-44
2022/05/02 04:21:43;;;;;;;19.80;15.00;;;7.60;99.90;;;;;;5015546;28;20196;-43
2022/05/02 04:24:08;;;;;;;19.73;13.23;;;7.60;99.90;;;;;;5015622;28;20540;-42
2022/05/02 04:26:34;;;;;;;20.50;14.70;;;7.60;99.90;;;;;;5015502;28;20225;-43
2022/05/02 04:29:00;;;;;;;20.40;14.67;;;7.70;99.90;;;;;;5015582;28;20181;-43
2022/05/02 04:31:26;;;;;;;20.57;13.60;;;7.60;99.90;;;;;;5015513;28;20176;-43
2022/05/02 04:33:52;;;;;;;22.80;14.20;;;7.50;99.90;;;;;;5015826;28;20259;-44
2022/05/02 04:36:18;;;;;;;20.13;13.90;;;7.60;99.90;;;;;;5015671;28;20192;-43
2022/05/02 04:38:43;;;;;;;21.40;14.20;;;7.60;99.90;;;;;;5015635;28;20197;-43
2022/05/02 04:41:13;;;;;;;22.43;12.87;;;7.60;99.90;;;;;;5015383;28;20182;-44
2022/05/02 04:43:39;;;;;;;20.63;13.70;;;7.60;99.90;;;;;;5015501;28;20220;-44
2022/05/02 04:46:05;;;;;;;21.60;14.40;;;7.60;99.90;;;;;;5016780;28;20561;-43
2022/05/02 04:48:31;;;;;;;20.87;13.83;;;7.60;99.90;;;;;;5017080;28;20285;-44
2022/05/02 04:50:56;;;;;;;17.50;13.30;;;7.60;99.90;;;;;;5016368;28;20180;-45
2022/05/02 04:53:22;;;;;;;23.20;15.03;;;7.70;99.90;;;;;;5015787;28;20173;-43
2022/05/02 04:55:48;;;;;;;26.80;13.83;;;7.70;99.90;;;;;;5015120;28;20185;-44
2022/05/02 04:58:14;;;;;;;21.93;13.70;;;7.70;99.90;;;;;;5015061;28;20213;-41
2022/05/02 05:00:40;;;;;;;26.93;14.57;;;7.80;99.90;;;;;;5014960;28;20640;-41
2022/05/02 05:09:57;;;;;;;19.80;12.87;;;7.80;99.90;;;;;;5015261;28;20652;-42
2022/05/02 05:12:51;;;;;;;24.00;14.27;;;7.80;99.90;;;;;;5015114;28;20193;-45
2022/05/02 05:18:34;;;;;;;20.90;13.77;;;8.00;99.90;;;;;;5014687;28;20294;-40
2022/05/02 05:21:25;;;;;;;19.97;13.13;;;8.00;99.90;;;;;;5013660;28;20200;-41
2022/05/02 05:24:06;;;;;;;16.83;12.37;;;8.00;99.90;;;;;;5014825;28;20664;-41
2022/05/02 05:26:56;;;;;;;17.77;13.67;;;8.00;99.90;;;;;;5014822;28;20216;-38
2022/05/02 05:30:07;;;;;;;18.97;13.40;;;8.10;99.90;;;;;;5013317;28;20183;-41
2022/05/02 05:33:02;;;;;;;22.20;14.30;;;8.10;99.90;;;;;;5014135;28;20195;-40
2022/05/02 05:36:05;;;;;;;19.97;13.30;;;8.20;99.90;;;;;;5014807;28;20219;-40
2022/05/02 05:38:48;;;;;;;20.67;14.07;;;8.30;99.90;;;;;;5014724;28;20207;-40
2022/05/02 05:41:35;;;;;;;18.23;14.60;;;8.30;99.90;;;;;;5014498;28;20169;-39
2022/05/02 05:44:24;;;;;;;19.10;14.13;;;8.40;99.90;;;;;;5014152;28;20177;-42
2022/05/02 05:47:11;;;;;;;20.57;14.60;;;8.50;99.90;;;;;;5014440;28;20563;-42
2022/05/02 05:49:48;;;;;;;19.43;13.10;;;8.50;99.90;;;;;;5013029;28;20688;-38
2022/05/02 05:52:27;;;;;;;20.00;13.70;;;8.60;99.90;;;;;;5014483;28;20219;-41
2022/05/02 05:55:06;;;;;;;24.30;13.67;;;8.70;99.90;;;;;;5014434;28;20188;-41
2022/05/02 05:58:02;;;;;;;19.93;13.53;;;8.80;99.90;;;;;;5014044;28;20284;-40
2022/05/02 06:00:33;;;;;;;22.00;14.00;;;8.90;99.90;;;;;;5014279;28;20173;-40
2022/05/02 06:03:23;;;;;;;20.20;14.00;;;9.00;99.90;;;;;;5014064;28;20181;-39
2022/05/02 06:05:49;;;;;;;24.13;15.17;;;9.10;99.90;;;;;;5013982;28;20188;-42
2022/05/02 06:08:20;;;;;;;20.70;14.40;;;9.10;99.90;;;;;;5014059;28;20667;-41
2022/05/02 06:10:47;;;;;;;21.23;14.73;;;9.20;99.90;;;;;;5014320;28;20173;-39
2022/05/02 06:13:16;;;;;;;19.43;14.10;;;9.20;99.90;;;;;;5014855;28;20193;-42
2022/05/02 06:18:33;;;;;;;20.67;14.43;;;9.40;99.90;;;;;;5014428;28;20243;-40
2022/05/02 06:21:02;;;;;;;20.97;14.80;;;9.40;99.90;;;;;;5014431;28;20204;-41
2022/05/02 06:23:31;;;;;;;21.23;13.13;;;9.40;99.90;;;;;;5014481;28;20170;-45
2022/05/02 06:25:57;;;;;;;18.93;12.47;;;9.50;99.90;;;;;;5013777;28;20641;-44
2022/05/02 06:28:28;;;;;;;21.13;13.83;;;9.50;99.90;;;;;;5013971;28;20279;-43
2022/05/02 06:30:57;;;;;;;19.73;14.63;;;9.50;99.90;;;;;;5014235;28;20184;-46
2022/05/02 06:33:24;;;;;;;21.43;14.47;;;9.60;99.90;;;;;;5014239;28;20549;-43
2022/05/02 06:36:10;;;;;;;25.37;15.03;;;9.60;99.90;;;;;;5013702;28;20192;-43
2022/05/02 06:38:58;;;;;;;20.33;13.87;;;9.70;99.90;;;;;;4996924;28;20275;-42
2022/05/02 06:41:29;;;;;;;18.47;14.13;;;9.70;99.90;;;;;;5013862;28;20208;-44
2022/05/02 06:44:04;;;;;;;20.70;13.90;;;9.80;99.90;;;;;;5012274;28;20201;-44
2022/05/02 06:46:50;;;;;;;21.57;14.33;;;9.90;99.90;;;;;;5013826;28;20650;-43
2022/05/02 06:49:16;;;;;;;20.13;13.83;;;9.90;99.90;;;;;;5012274;28;20212;-43
2022/05/02 06:51:49;;;;;;;19.07;13.97;;;10.00;99.90;;;;;;5013774;28;20228;-44
2022/05/02 06:54:23;;;;;;;20.77;14.33;;;10.00;99.90;;;;;;5013385;28;20178;-44
2022/05/02 06:56:58;;;;;;;21.77;14.93;;;10.10;99.90;;;;;;5013746;28;20205;-43
2022/05/02 06:59:48;;;;;;;21.47;13.30;;;10.00;99.90;;;;;;5013838;28;20224;-42
2022/05/02 07:02:48;;;;;;;20.20;14.37;;;10.10;99.90;;;;;;5013433;28;20166;-46
2022/05/02 07:05:54;;;;;;;19.50;14.90;;;10.20;99.90;;;;;;5013055;28;20660;-43
2022/05/02 07:08:28;;;;;;;20.83;14.67;;;10.30;99.90;;;;;;5012996;28;20221;-45
2022/05/02 07:11:03;;;;;;;19.27;13.73;;;10.30;99.90;;;;;;5013377;28;20209;-43
2022/05/02 07:13:50;;;;;;;19.33;14.17;;;10.30;99.90;;;;;;5012028;28;20181;-45
2022/05/02 07:16:26;;;;;;;17.50;14.13;;;10.40;99.90;;;;;;5013188;28;20177;-43
2022/05/02 07:19:23;;;;;;;20.67;13.73;;;10.40;99.90;;;;;;5014363;28;20258;-44
2022/05/02 07:21:57;;;;;;;23.77;14.87;;;10.60;99.90;;;;;;5016955;28;20197;-45
2022/05/02 07:24:23;;;;;;;23.40;14.57;;;10.60;99.90;;;;;;5015604;28;20189;-46
2022/05/02 07:27:13;;;;;;;17.70;13.07;;;10.80;99.90;;;;;;5015723;28;20310;-43
2022/05/02 07:29:40;;;;;;;22.97;13.73;;;10.90;99.90;;;;;;5017180;28;20186;-43
2022/05/02 07:32:08;;;;;;;21.23;13.00;;;11.00;99.90;;;;;;5017137;28;20175;-43
2022/05/02 07:34:36;;;;;;;19.60;13.40;;;11.10;99.90;;;;;;5015963;28;20182;-44
2022/05/02 07:37:02;;;;;;;20.07;13.27;;;11.20;99.90;;;;;;5016805;28;20286;-44
2022/05/02 07:39:29;;;;;;;18.03;12.10;;;11.30;99.90;;;;;;5017212;28;20349;-44
2022/05/02 07:42:00;;;;;;;19.03;12.50;;;11.50;99.90;;;;;;5016695;28;20180;-45
2022/05/02 07:44:30;;;;;;;20.40;12.07;;;11.60;99.90;;;;;;5017258;28;20173;-44
2022/05/02 07:47:00;;;;;;;13.87;10.53;;;11.70;99.90;;;;;;5018773;28;20191;-46
2022/05/02 07:49:32;;;;;;;16.63;12.30;;;11.80;99.90;;;;;;5022001;28;20251;-45
2022/05/02 07:52:01;;;;;;;17.53;11.37;;;12.00;99.90;;;;;;5021366;28;20165;-46
2022/05/02 07:54:30;;;;;;;17.07;11.07;;;12.10;99.90;;;;;;5002357;28;20187;-46
2022/05/02 07:57:01;;;;;;;18.50;11.65;;;12.10;99.90;;;;;;5019131;28;20274;-45
2022/05/02 07:59:38;;;;;;;16.37;11.33;;;12.20;99.90;;;;;;5017350;28;20168;-42
2022/05/02 08:02:07;;;;;;;13.23;10.87;;;12.30;99.90;;;;;;5016095;28;20173;-42
2022/05/02 08:04:36;;;;;;;14.67;9.93;;;12.40;99.90;;;;;;5016126;28;20568;-39
2022/05/02 08:07:02;;;;;;;14.27;9.67;;;12.40;99.90;;;;;;5015968;28;20243;-42
2022/05/02 08:09:42;;;;;;;16.87;12.03;;;12.50;99.90;;;;;;5015922;28;20231;-41
2022/05/02 08:12:37;;;;;;;14.73;9.80;;;12.70;99.90;;;;;;5016010;28;20168;-42
2022/05/02 08:15:22;;;;;;;14.47;10.27;;;12.90;99.90;;;;;;5016268;28;20182;-41
2022/05/02 08:18:10;;;;;;;11.30;9.20;;;13.00;99.90;;;;;;5015933;28;20217;-42
2022/05/02 08:20:56;;;;;;;14.33;10.47;;;13.20;99.90;;;;;;5015934;28;20173;-41
2022/05/02 08:29:40;;;;;;;12.90;8.73;;;13.50;99.90;;;;;;5015481;28;20176;-41
2022/05/02 08:32:10;;;;;;;16.23;9.20;;;13.70;99.90;;;;;;5015750;28;20178;-42
2022/05/02 08:34:41;;;;;;;12.87;8.20;;;13.80;99.90;;;;;;5016381;28;20177;-44
2022/05/02 08:37:34;;;;;;;11.73;8.80;;;13.90;99.90;;;;;;5015638;28;20232;-40
2022/05/02 08:40:22;;;;;;;10.77;7.37;;;13.90;99.90;;;;;;5015491;28;20177;-41
2022/05/02 08:43:07;;;;;;;17.90;8.23;;;14.10;99.90;;;;;;5015929;28;20166;-42
2022/05/02 08:45:53;;;;;;;11.00;8.03;;;14.10;99.90;;;;;;5015956;28;20175;-40
2022/05/02 08:48:30;;;;;;;12.83;8.93;;;14.20;99.90;;;;;;5015862;28;20198;-42
2022/05/02 08:51:42;;;;;;;13.73;8.67;;;14.30;99.90;;;;;;5017302;28;20618;-41
2022/05/02 08:54:19;;;;;;;13.97;8.80;;;14.40;99.90;;;;;;5010119;28;20189;-41
2022/05/02 08:56:50;;;;;;;15.50;8.30;;;14.40;99.90;;;;;;5018587;28;20193;-41
2022/05/02 09:00:04;;;;;;;13.13;9.03;;;14.50;99.90;;;;;;5018355;28;20205;-44
2022/05/02 09:03:16;;;;;;;11.50;8.57;;;14.70;99.90;;;;;;5015782;28;20174;-42
2022/05/02 09:06:18;;;;;;;11.43;8.47;;;14.80;99.90;;;;;;5005993;28;20188;-40
2022/05/02 09:09:22;;;;;;;14.27;8.70;;;14.90;99.90;;;;;;5012071;28;20213;-41
2022/05/02 09:11:58;;;;;;;11.33;7.60;;;15.00;99.90;;;;;;5015249;28;20201;-39
2022/05/02 09:14:51;;;;;;;11.50;8.53;;;15.00;99.90;;;;;;5015146;28;20174;-41
2022/05/02 09:17:17;;;;;;;11.50;8.47;;;15.00;99.90;;;;;;5014928;28;20300;-41
2022/05/02 09:20:20;;;;;;;12.17;8.43;;;15.10;99.90;;;;;;5014762;28;20262;-41
2022/05/02 09:23:11;;;;;;;10.63;7.93;;;15.20;99.90;;;;;;5014931;28;20189;-42
2022/05/02 09:25:52;;;;;;;9.83;7.80;;;15.20;99.90;;;;;;5013479;28;20621;-41
2022/05/02 09:28:21;;;;;;;14.50;8.57;;;15.20;99.90;;;;;;5013239;28;20201;-38
2022/05/02 09:31:12;;;;;;;12.67;8.37;;;15.40;99.90;;;;;;5013215;28;20209;-42
2022/05/02 09:34:33;;;;;;;16.30;9.40;;;15.40;99.90;;;;;;5013267;28;20174;-39
2022/05/02 09:37:02;;;;;;;11.70;8.27;;;15.50;99.90;;;;;;5014574;28;20599;-41
2022/05/02 09:39:48;;;;;;;10.37;8.57;;;15.60;99.90;;;;;;5013058;28;20173;-38
2022/05/02 09:42:34;;;;;;;13.70;7.90;;;15.60;99.90;;;;;;5014079;28;20182;-42
2022/05/02 09:51:20;;;;;;;11.83;8.20;;;15.90;99.90;;;;;;5014076;28;20680;-40
2022/05/02 09:54:06;;;;;;;10.20;8.00;;;16.10;99.90;;;;;;5013981;28;20181;-42
2022/05/02 09:56:44;;;;;;;12.73;8.37;;;16.20;99.90;;;;;;5014256;28;20227;-41
2022/05/02 09:59:23;;;;;;;11.97;7.97;;;16.20;99.90;;;;;;5013984;28;20208;-41
2022/05/02 10:01:57;;;;;;;11.17;8.67;;;16.20;99.90;;;;;;5014563;28;20638;-42
2022/05/02 10:04:32;;;;;;;12.37;9.10;;;16.40;99.90;;;;;;5014006;28;20210;-42
2022/05/02 10:07:06;;;;;;;11.37;8.97;;;16.60;99.90;;;;;;5014110;28;20228;-43
2022/05/02 10:09:56;;;;;;;11.60;9.90;;;16.70;99.90;;;;;;5012606;28;20173;-42
2022/05/02 10:12:22;;;;;;;11.73;9.83;;;16.70;99.90;;;;;;5014475;28;20197;-42
2022/05/02 10:15:00;;;;;;;13.77;9.30;;;16.70;99.90;;;;;;5013789;28;20236;-39
2022/05/02 10:17:32;;;;;;;14.33;8.70;;;16.70;99.90;;;;;;5012441;28;20264;-38
2022/05/02 10:20:15;;;;;;;12.43;9.23;;;16.70;99.90;;;;;;5013757;28;20172;-41
2022/05/02 10:23:10;;;;;;;14.10;10.00;;;16.80;99.90;;;;;;5013712;28;20244;-40
2022/05/02 10:25:41;;;;;;;15.17;9.87;;;16.90;99.90;;;;;;5013976;28;20197;-42
2022/05/02 10:28:30;;;;;;;13.30;9.57;;;16.90;99.90;;;;;;5012470;28;20202;-40
2022/05/02 10:31:09;;;;;;;12.77;9.20;;;17.00;99.90;;;;;;5013924;28;20253;-43
2022/05/02 10:33:43;;;;;;;15.07;9.53;;;17.20;99.90;;;;;;5013978;28;20282;-40
2022/05/02 10:36:10;;;;;;;12.33;9.87;;;17.20;99.90;;;;;;5013889;28;20170;-42
2022/05/02 10:38:44;;;;;;;15.43;11.10;;;17.30;99.90;;;;;;5013901;28;20567;-41
2022/05/02 10:41:19;;;;;;;14.70;11.17;;;17.40;99.90;;;;;;5013945;28;20531;-40
2022/05/02 10:43:50;;;;;;;15.63;11.10;;;17.40;99.90;;;;;;5013800;28;20244;-42
2022/05/02 10:46:18;;;;;;;18.07;11.23;;;17.40;99.90;;;;;;5013754;28;20241;-42
2022/05/02 10:49:12;;;;;;;12.47;9.40;;;17.40;99.90;;;;;;5012198;28;20623;-42
2022/05/02 10:51:56;;;;;;;13.13;9.50;;;17.50;99.90;;;;;;5012195;28;20646;-43
2022/05/02 10:54:46;;;;;;;13.33;11.17;;;17.60;99.90;;;;;;5016071;28;20181;-41
2022/05/02 10:57:30;;;;;;;12.73;11.07;;;17.80;99.90;;;;;;5016019;28;20213;-39
2022/05/02 11:00:06;;;;;;;14.00;11.37;;;17.80;99.90;;;;;;5016150;28;20170;-44
2022/05/02 11:02:46;;;;;;;16.10;12.73;;;17.80;99.90;;;;;;5016073;28;20224;-42
2022/05/02 11:05:16;;;;;;;13.93;11.60;;;17.80;99.90;;;;;;5016077;28;20176;-41
2022/05/02 11:08:09;;;;;;;14.00;11.27;;;17.80;99.90;;;;;;4999718;28;20737;-42
2022/05/02 11:10:56;;;;;;;17.10;11.27;;;17.80;99.90;;;;;;5017179;28;20221;-41
2022/05/02 11:13:40;;;;;;;14.87;11.10;;;17.90;99.90;;;;;;5017422;28;20526;-40
2022/05/02 11:16:24;;;;;;;17.13;11.37;;;17.90;99.90;;;;;;5017234;28;20170;-43
2022/05/02 11:22:24;;;;;;;16.83;10.40;;;18.00;99.90;;;;;;5017090;28;20307;-48
2022/05/02 11:25:06;;;;;;;16.43;11.27;;;18.10;99.90;;;;;;5015729;28;20253;-48
2022/05/02 11:27:42;;;;;;;16.33;12.00;;;18.20;99.90;;;;;;5015455;28;20751;-46
2022/05/02 11:30:10;;;;;;;12.50;11.00;;;18.20;99.90;;;;;;5016930;28;20180;-48
2022/05/02 11:32:57;;;;;;;14.47;11.10;;;18.20;99.90;;;;;;5017405;28;20592;-46
2022/05/02 11:35:24;;;;;;;15.73;11.87;;;18.10;99.90;;;;;;5016851;28;20186;-47
2022/05/02 11:37:54;;;;;;;12.67;10.93;;;18.00;99.90;;;;;;5015277;28;20220;-47
2022/05/02 11:40:28;;;;;;;14.27;10.93;;;18.10;99.90;;;;;;5016615;28;20181;-47
2022/05/02 11:42:55;;;;;;;15.20;11.20;;;18.30;99.90;;;;;;5016847;28;20173;-49
2022/05/02 11:45:50;;;;;;;14.07;11.07;;;18.50;99.90;;;;;;5017093;28;20593;-46
2022/05/02 11:48:40;;;;;;;16.17;12.23;;;18.60;99.90;;;;;;5015825;28;20316;-46
2022/05/02 11:51:07;;;;;;;14.47;10.80;;;18.90;99.90;;;;;;5016451;28;20170;-47
2022/05/02 11:53:35;;;;;;;16.47;12.07;;;18.90;99.90;;;;;;5015831;28;20181;-48
2022/05/02 11:56:05;;;;;;;15.93;11.80;;;18.90;99.90;;;;;;5014999;28;20277;-48
2022/05/02 11:58:45;;;;;;;13.30;10.70;;;18.90;99.90;;;;;;5016189;28;20213;-48
2022/05/02 12:01:15;;;;;;;14.00;11.73;;;18.90;99.90;;;;;;5016246;28;20614;-47
2022/05/02 12:03:53;;;;;;;14.23;11.03;;;19.00;99.90;;;;;;4998196;28;20190;-46
2022/05/02 12:06:29;;;;;;;14.53;11.80;;;19.20;99.90;;;;;;5015967;28;20201;-49
2022/05/02 12:08:59;;;;;;;14.37;11.30;;;19.40;99.90;;;;;;5016379;28;20517;-47
2022/05/02 12:11:25;;;;;;;13.23;10.77;;;19.50;99.90;;;;;;5014684;28;20181;-47
2022/05/02 12:13:52;;;;;;;13.30;11.03;;;19.50;99.90;;;;;;5016206;28;20281;-46
2022/05/02 12:16:19;;;;;;;14.93;11.93;;;19.50;99.90;;;;;;5016067;28;20704;-49
2022/05/02 12:18:52;;;;;;;14.00;12.40;;;19.40;99.90;;;;;;5015796;28;20208;-47
2022/05/02 12:21:48;;;;;;;18.17;11.53;;;19.40;99.90;;;;;;5014545;28;20273;-49
2022/05/02 12:24:27;;;;;;;14.43;11.20;;;19.40;99.90;;;;;;5015654;28;20245;-47
2022/05/02 12:26:54;;;;;;;15.80;11.03;;;19.50;99.90;;;;;;5015612;28;20731;-46
2022/05/02 12:29:21;;;;;;;12.93;11.47;;;19.50;99.90;;;;;;5014468;28;20193;-48
2022/05/02 12:31:58;;;;;;;13.90;10.57;;;19.50;99.90;;;;;;5016156;28;20240;-46
2022/05/02 12:34:46;;;;;;;13.73;11.27;;;19.50;99.90;;;;;;5014264;28;20227;-47
2022/05/02 12:37:23;;;;;;;15.13;11.77;;;19.60;99.90;;;;;;5015690;28;20568;-49
2022/05/02 12:40:09;;;;;;;13.93;11.37;;;19.70;99.90;;;;;;5015680;28;20220;-47
2022/05/02 12:42:49;;;;;;;14.67;12.13;;;19.80;99.90;;;;;;5015394;28;20537;-46
2022/05/02 12:45:17;;;;;;;12.77;10.70;;;19.80;99.90;;;;;;5014060;28;20174;-49
2022/05/02 12:48:40;;;;;;;15.17;11.97;;;19.70;99.90;;;;;;5015403;28;20292;-49
2022/05/02 12:51:14;;;;;;;12.20;10.40;;;19.90;99.90;;;;;;5013436;28;20649;-48
2022/05/02 12:56:24;;;;;;;12.83;11.53;;;20.20;99.90;;;;;;5014872;28;20249;-48
2022/05/02 13:01:48;;;;;;;14.37;10.67;;;20.50;99.90;;;;;;5015301;28;20173;-50
2022/05/02 13:04:20;;;;;;;16.17;10.27;;;20.20;99.90;;;;;;5016368;28;20166;-48
2022/05/02 13:06:46;;;;;;;12.23;10.43;;;20.20;99.90;;;;;;5016416;28;20543;-47
2022/05/02 13:09:19;;;;;;;12.37;10.67;;;20.30;99.90;;;;;;5014818;28;20182;-47
2022/05/02 13:11:46;;;;;;;13.10;10.13;;;20.30;99.90;;;;;;5014827;28;20170;-47
2022/05/02 13:14:25;;;;;;;12.87;10.47;;;20.30;99.90;;;;;;5016465;28;20252;-47
2022/05/02 13:16:52;;;;;;;12.00;10.43;;;20.40;99.90;;;;;;5014774;28;20673;-47
2022/05/02 13:19:31;;;;;;;11.07;9.93;;;20.50;99.90;;;;;;5014728;28;20216;-47
2022/05/02 13:21:57;;;;;;;10.50;9.47;;;20.40;99.90;;;;;;5016321;28;20264;-48
2022/05/02 13:24:23;;;;;;;12.33;10.50;;;20.40;99.90;;;;;;5016107;28;20545;-47
2022/05/02 13:27:06;;;;;;;13.43;9.63;;;20.50;99.90;;;;;;5016568;28;20190;-48
2022/05/02 13:29:57;;;;;;;13.00;10.10;;;20.40;99.90;;;;;;5016672;28;20244;-47
2022/05/02 13:32:29;;;;;;;9.83;8.83;;;20.30;99.90;;;;;;5016799;28;20193;-48
2022/05/02 13:35:06;;;;;;;12.63;9.13;;;20.40;99.90;;;;;;5016583;28;20204;-48
2022/05/02 13:37:34;;;;;;;11.30;9.40;;;20.50;99.90;;;;;;5016583;28;20205;-49
2022/05/02 13:40:11;;;;;;;13.87;9.53;;;20.80;99.90;;;;;;5016560;28;20190;-47
2022/05/02 13:42:45;;;;;;;11.77;9.43;;;20.80;99.90;;;;;;5016544;28;20158;-48
2022/05/02 13:45:41;;;;;;;11.50;10.07;;;20.70;99.90;;;;;;5016470;28;20169;-48
2022/05/02 13:48:18;;;;;;;15.67;10.00;;;20.80;99.90;;;;;;5016648;28;20254;-47
2022/05/02 13:51:06;;;;;;;9.67;8.67;;;20.60;99.90;;;;;;5016195;28;20560;-48